createdAt,value
2022-10-19T00:01:21.554Z,12.07
2022-10-19T00:03:51.688Z,12.60
2022-10-19T00:06:27.643Z,14.40
2022-10-19T00:09:15.953Z,12.65
2022-10-19T00:11:48.397Z,13.55
2022-10-19T00:14:20.943Z,13.73
2022-10-19T00:16:49.826Z,14.45
2022-10-19T00:19:25.293Z,15.45
2022-10-19T00:21:52.250Z,16.13
2022-10-19T00:24:21.828Z,17.10
2022-10-19T00:26:51.127Z,16.08
2022-10-19T00:29:17.857Z,17.25
2022-10-19T00:31:46.800Z,18.58
2022-10-19T00:34:13.422Z,17.58
2022-10-19T00:36:41.816Z,18.15
2022-10-19T00:39:14.264Z,18.77
2022-10-19T00:41:41.843Z,18.10
2022-10-19T00:44:16.742Z,19.95
2022-10-19T00:46:48.734Z,18.48
2022-10-19T00:49:38.719Z,20.05
2022-10-19T00:52:10.475Z,20.13
2022-10-19T00:54:39.961Z,19.77
2022-10-19T00:57:07.522Z,21.00
2022-10-19T00:59:36.212Z,19.90
2022-10-19T01:02:07.475Z,19.92
2022-10-19T01:04:36.526Z,20.13
2022-10-19T01:07:07.959Z,20.75
2022-10-19T01:09:34.906Z,20.45
2022-10-19T01:12:17.252Z,19.50
2022-10-19T01:15:15.058Z,20.40
2022-10-19T01:17:54.788Z,20.15
2022-10-19T01:20:47.532Z,18.92
2022-10-19T01:23:38.396Z,19.60
2022-10-19T01:26:38.787Z,18.48
2022-10-19T01:29:35.685Z,18.02
2022-10-19T01:32:19.565Z,18.45
2022-10-19T01:35:01.752Z,18.05
2022-10-19T01:37:49.693Z,18.48
2022-10-19T01:40:35.749Z,18.30
2022-10-19T01:43:02.415Z,18.55
2022-10-19T01:45:31.893Z,17.45
2022-10-19T01:48:21.877Z,18.90
2022-10-19T01:50:58.842Z,17.15
2022-10-19T01:53:28.055Z,17.58
2022-10-19T01:55:58.893Z,17.58
2022-10-19T01:58:29.557Z,18.58
2022-10-19T02:00:58.637Z,18.13
2022-10-19T02:03:28.388Z,18.08
2022-10-19T02:05:56.844Z,18.42
2022-10-19T02:08:35.846Z,18.33
2022-10-19T02:11:04.247Z,17.55
2022-10-19T02:13:32.016Z,18.05
2022-10-19T02:16:05.495Z,17.33
2022-10-19T02:18:40.119Z,17.42
2022-10-19T02:21:07.399Z,17.50
2022-10-19T02:23:34.356Z,18.13
2022-10-19T02:26:01.120Z,17.15
2022-10-19T02:28:29.835Z,17.48
2022-10-19T02:30:58.274Z,17.33
2022-10-19T02:33:25.885Z,17.45
2022-10-19T02:35:55.318Z,18.25
2022-10-19T02:38:23.797Z,17.70
2022-10-19T02:41:16.972Z,17.90
2022-10-19T02:43:48.685Z,17.98
2022-10-19T02:46:47.254Z,18.73
2022-10-19T02:49:14.555Z,18.10
2022-10-19T02:51:58.163Z,18.17
2022-10-19T02:54:24.911Z,18.65
2022-10-19T02:56:54.119Z,17.77
2022-10-19T02:59:20.842Z,18.83
2022-10-19T03:01:49.906Z,18.23
2022-10-19T03:04:16.928Z,18.70
2022-10-19T03:06:46.406Z,18.35
2022-10-19T03:09:13.107Z,18.17
2022-10-19T03:11:39.783Z,18.08
2022-10-19T03:14:06.417Z,17.70
2022-10-19T03:16:33.075Z,18.20
2022-10-19T03:18:59.713Z,18.48
2022-10-19T03:21:26.355Z,19.35
2022-10-19T03:23:52.971Z,18.13
2022-10-19T03:26:19.942Z,19.00
2022-10-19T03:28:46.627Z,19.90
2022-10-19T03:31:13.346Z,20.25
2022-10-19T03:33:39.991Z,21.30
2022-10-19T03:36:37.240Z,19.67
2022-10-19T03:39:10.692Z,19.83
2022-10-19T03:41:38.410Z,20.67
2022-10-19T03:44:06.610Z,21.45
2022-10-19T03:46:33.963Z,22.85
2022-10-19T03:49:00.808Z,22.15
2022-10-19T03:51:29.762Z,21.27
2022-10-19T03:54:02.141Z,23.17
2022-10-19T03:56:34.033Z,22.73
2022-10-19T03:59:03.010Z,22.00
2022-10-19T04:01:35.871Z,21.33
2022-10-19T04:04:10.056Z,22.60
2022-10-19T04:06:39.429Z,21.13
2022-10-19T04:09:08.085Z,22.60
2022-10-19T04:11:35.910Z,22.05
2022-10-19T04:14:03.719Z,21.77
2022-10-19T04:16:33.479Z,23.27
2022-10-19T04:19:03.327Z,22.63
2022-10-19T04:21:31.009Z,24.40
2022-10-19T04:24:00.044Z,24.15
2022-10-19T04:26:27.279Z,23.13
2022-10-19T04:28:54.220Z,24.80
2022-10-19T04:31:20.896Z,23.10
2022-10-19T04:33:47.533Z,25.83
2022-10-19T04:36:14.188Z,24.42
2022-10-19T04:38:40.936Z,24.73
2022-10-19T04:41:19.171Z,24.88
2022-10-19T04:43:46.332Z,25.52
2022-10-19T04:46:15.564Z,23.85
2022-10-19T04:48:42.725Z,24.98
2022-10-19T04:51:10.584Z,24.98
2022-10-19T04:53:39.096Z,23.98
2022-10-19T04:56:07.893Z,23.15
2022-10-19T04:58:35.338Z,25.08
2022-10-19T05:01:16.493Z,23.73
2022-10-19T05:03:43.664Z,23.67
2022-10-19T05:06:11.364Z,22.55
2022-10-19T05:08:38.457Z,24.00
2022-10-19T05:11:14.329Z,21.70
2022-10-19T05:13:41.947Z,22.85
2022-10-19T05:16:12.363Z,22.73
2022-10-19T05:18:42.141Z,21.55
2022-10-19T05:21:11.407Z,21.73
2022-10-19T05:23:38.975Z,21.70
2022-10-19T05:26:07.346Z,21.17
2022-10-19T05:28:34.993Z,22.58
2022-10-19T05:31:16.998Z,22.48
2022-10-19T05:33:44.419Z,21.92
2022-10-19T05:36:22.551Z,22.33
2022-10-19T05:38:50.520Z,21.52
2022-10-19T05:41:17.760Z,21.75
2022-10-19T05:43:47.412Z,21.92
2022-10-19T05:46:18.216Z,20.08
2022-10-19T05:48:45.981Z,22.02
2022-10-19T05:51:15.587Z,21.25
2022-10-19T05:53:42.737Z,23.65
2022-10-19T05:56:13.617Z,22.95
2022-10-19T05:58:43.214Z,24.33
2022-10-19T06:01:10.418Z,23.98
2022-10-19T06:03:37.034Z,24.70
2022-10-19T06:06:05.495Z,25.88
2022-10-19T06:08:34.833Z,24.75
2022-10-19T06:11:07.706Z,24.92
2022-10-19T06:13:37.040Z,28.02
2022-10-19T06:16:05.538Z,26.65
2022-10-19T06:18:32.309Z,25.92
2022-10-19T06:21:04.389Z,26.92
2022-10-19T06:23:34.832Z,26.10
2022-10-19T06:26:12.629Z,25.75
2022-10-19T06:28:41.105Z,24.15
2022-10-19T06:31:09.191Z,24.50
2022-10-19T06:33:39.303Z,25.13
2022-10-19T06:36:08.219Z,24.98
2022-10-19T06:38:34.932Z,26.27
2022-10-19T06:41:01.779Z,25.67
2022-10-19T06:43:28.815Z,26.00
2022-10-19T06:45:56.001Z,25.23
2022-10-19T06:48:22.975Z,24.65
2022-10-19T06:51:00.611Z,22.80
2022-10-19T06:53:30.343Z,22.60
2022-10-19T06:56:01.984Z,23.80
2022-10-19T06:58:30.777Z,22.75
2022-10-19T07:01:01.160Z,22.80
2022-10-19T07:03:28.965Z,22.85
2022-10-19T07:05:57.750Z,23.08
2022-10-19T07:08:25.074Z,22.05
2022-10-19T07:11:00.240Z,23.45
2022-10-19T07:13:27.850Z,22.25
2022-10-19T07:16:06.787Z,23.38
2022-10-19T07:18:39.126Z,22.92
2022-10-19T07:21:14.476Z,22.92
2022-10-19T07:23:44.924Z,21.73
2022-10-19T07:26:23.931Z,22.92
2022-10-19T07:28:51.033Z,21.83
2022-10-19T07:31:20.596Z,21.85
2022-10-19T07:33:51.776Z,21.70
2022-10-19T07:36:20.954Z,19.15
2022-10-19T07:38:50.247Z,22.40
2022-10-19T07:41:19.091Z,20.50
2022-10-19T07:43:47.467Z,19.75
2022-10-19T07:46:19.895Z,20.50
2022-10-19T07:48:49.371Z,20.65
2022-10-19T07:51:17.339Z,20.95
2022-10-19T07:53:44.671Z,22.55
2022-10-19T07:56:18.820Z,21.13
2022-10-19T07:58:45.612Z,20.67
2022-10-19T08:01:13.272Z,23.15
2022-10-19T08:04:42.853Z,23.05
2022-10-19T08:06:33.991Z,23.17
2022-10-19T08:09:00.965Z,22.58
2022-10-19T08:11:35.417Z,21.90
2022-10-19T08:14:05.146Z,21.60
2022-10-19T08:16:40.276Z,20.63
2022-10-19T08:19:12.306Z,21.20
2022-10-19T08:21:41.217Z,17.73
2022-10-19T08:24:08.616Z,16.17
2022-10-19T08:26:38.797Z,15.60
2022-10-19T08:29:09.449Z,14.27
2022-10-19T08:31:36.740Z,13.57
2022-10-19T08:34:04.194Z,13.55
2022-10-19T08:36:35.542Z,12.45
2022-10-19T08:39:04.308Z,11.48
2022-10-19T08:41:57.105Z,12.45
2022-10-19T08:44:45.085Z,15.88
2022-10-19T08:47:31.332Z,13.35
2022-10-19T08:50:01.846Z,13.90
2022-10-19T08:52:37.744Z,14.90
2022-10-19T08:55:15.239Z,14.10
2022-10-19T08:58:03.206Z,14.77
2022-10-19T09:00:58.550Z,14.70
2022-10-19T09:04:03.900Z,14.68
2022-10-19T09:07:08.785Z,14.45
2022-10-19T09:09:42.253Z,13.25
2022-10-19T09:12:14.697Z,14.55
2022-10-19T09:14:46.452Z,14.05
2022-10-19T09:17:16.949Z,12.80
2022-10-19T09:19:46.118Z,14.40
2022-10-19T09:22:37.345Z,12.32
2022-10-19T09:25:12.874Z,14.80
2022-10-19T09:27:43.544Z,14.57
2022-10-19T09:30:22.069Z,13.18
2022-10-19T09:33:00.548Z,14.10
2022-10-19T09:35:39.400Z,13.98
2022-10-19T09:38:07.678Z,12.73
2022-10-19T09:40:35.542Z,11.63
2022-10-19T09:43:21.470Z,12.13
2022-10-19T09:46:00.874Z,11.77
2022-10-19T09:48:42.279Z,10.32
2022-10-19T09:51:14.026Z,11.40
2022-10-19T09:53:50.861Z,9.75
2022-10-19T09:56:27.981Z,8.68
2022-10-19T09:58:57.578Z,8.50
2022-10-19T10:01:43.942Z,8.13
2022-10-19T10:04:16.223Z,9.02
2022-10-19T10:06:44.726Z,9.32
2022-10-19T10:09:19.810Z,9.77
2022-10-19T10:11:49.583Z,8.90
2022-10-19T10:14:32.605Z,9.00
2022-10-19T10:17:14.993Z,8.68
2022-10-19T10:22:53.048Z,9.15
2022-10-19T10:25:20.301Z,9.73
2022-10-19T10:28:20.376Z,10.13
2022-10-19T10:30:49.050Z,10.70
2022-10-19T10:33:33.372Z,10.52
2022-10-19T10:36:10.955Z,10.93
2022-10-19T10:38:40.807Z,11.45
2022-10-19T10:41:28.953Z,11.27
2022-10-19T10:44:06.755Z,11.35
2022-10-19T10:46:55.600Z,10.15
2022-10-19T10:49:52.850Z,11.60
2022-10-19T10:52:20.146Z,10.50
2022-10-19T10:55:15.408Z,11.32
2022-10-19T10:57:49.874Z,11.00
2022-10-19T11:00:22.155Z,11.63
2022-10-19T11:03:21.940Z,11.45
2022-10-19T11:05:53.230Z,11.52
2022-10-19T11:08:35.866Z,11.32
2022-10-19T11:11:21.613Z,11.85
2022-10-19T11:14:16.048Z,10.68
2022-10-19T11:19:18.498Z,11.00
2022-10-19T11:22:02.337Z,11.15
2022-10-19T11:24:47.820Z,11.07
2022-10-19T11:27:21.643Z,11.30
2022-10-19T11:30:02.170Z,11.13
2022-10-19T11:32:41.340Z,9.65
2022-10-19T11:35:24.839Z,11.02
2022-10-19T11:38:21.296Z,11.00
2022-10-19T11:41:18.192Z,11.82
2022-10-19T11:43:54.502Z,11.10
2022-10-19T11:46:29.924Z,10.43
2022-10-19T11:49:30.356Z,10.20
2022-10-19T11:52:12.017Z,9.82
2022-10-19T11:55:02.133Z,10.00
2022-10-19T11:58:13.382Z,9.40
2022-10-19T12:01:05.922Z,9.32
2022-10-19T12:04:11.958Z,8.77
2022-10-19T12:07:19.867Z,8.63
2022-10-19T12:10:05.887Z,7.45
2022-10-19T12:12:40.446Z,7.45
2022-10-19T12:15:28.857Z,6.97
2022-10-19T12:18:01.832Z,6.95
2022-10-19T12:20:36.460Z,6.80
2022-10-19T12:23:22.890Z,6.85
2022-10-19T12:25:50.773Z,6.70
2022-10-19T12:28:39.149Z,6.75
2022-10-19T12:31:06.839Z,8.05
2022-10-19T12:33:36.166Z,6.63
2022-10-19T12:36:12.041Z,5.97
2022-10-19T12:39:01.005Z,6.07
2022-10-19T12:41:36.442Z,5.43
2022-10-19T12:44:27.036Z,6.10
2022-10-19T12:47:00.883Z,5.50
2022-10-19T12:49:33.548Z,5.70
2022-10-19T12:52:03.384Z,5.82
2022-10-19T12:54:36.202Z,4.68
2022-10-19T12:57:04.474Z,4.72
2022-10-19T12:59:38.166Z,5.40
2022-10-19T13:02:23.741Z,5.20
2022-10-19T13:04:54.486Z,4.95
2022-10-19T13:07:21.440Z,4.78
2022-10-19T13:09:49.062Z,5.18
2022-10-19T13:12:33.167Z,5.05
2022-10-19T13:15:01.934Z,3.97
2022-10-19T13:17:50.618Z,4.15
2022-10-19T13:20:24.650Z,4.78
2022-10-19T13:23:11.266Z,4.80
2022-10-19T13:25:40.935Z,5.38
2022-10-19T13:28:07.649Z,5.32
2022-10-19T13:30:41.641Z,4.68
2022-10-19T13:33:43.896Z,4.82
2022-10-19T13:36:11.622Z,4.90
2022-10-19T13:38:43.028Z,5.10
2022-10-19T13:41:27.233Z,5.53
2022-10-19T13:44:04.072Z,4.60
2022-10-19T13:46:30.703Z,4.20
2022-10-19T13:49:41.081Z,4.57
2022-10-19T13:52:26.138Z,5.82
2022-10-19T13:55:32.519Z,5.00
2022-10-19T13:58:36.211Z,5.13
2022-10-19T14:01:21.003Z,5.32
2022-10-19T14:03:53.661Z,5.07
2022-10-19T14:06:42.130Z,4.75
2022-10-19T14:09:33.772Z,5.45
2022-10-19T14:12:08.095Z,4.70
2022-10-19T14:14:45.416Z,4.72
2022-10-19T14:17:27.899Z,4.97
2022-10-19T14:19:57.801Z,4.25
2022-10-19T14:22:34.668Z,4.50
2022-10-19T14:25:32.764Z,3.60
2022-10-19T14:28:06.653Z,4.18
2022-10-19T14:30:36.004Z,3.63
2022-10-19T14:33:08.946Z,3.88
2022-10-19T14:35:41.411Z,4.53
2022-10-19T14:38:16.600Z,4.05
2022-10-19T14:40:45.807Z,4.57
2022-10-19T14:43:27.880Z,3.90
2022-10-19T14:46:06.784Z,3.65
2022-10-19T14:48:38.969Z,3.83
2022-10-19T14:51:26.149Z,3.60
2022-10-19T14:54:00.630Z,4.13
2022-10-19T14:56:52.265Z,3.83
2022-10-19T15:02:28.661Z,3.97
2022-10-19T15:04:58.555Z,3.53
2022-10-19T15:07:41.584Z,3.67
2022-10-19T15:10:20.916Z,3.30
2022-10-19T15:12:52.485Z,3.40
2022-10-19T15:15:25.643Z,3.20
2022-10-19T15:17:57.330Z,3.47
2022-10-19T15:20:43.970Z,3.45
2022-10-19T15:23:39.686Z,4.47
2022-10-19T15:26:29.035Z,4.40
2022-10-19T15:29:19.219Z,3.78
2022-10-19T15:31:45.958Z,3.50
2022-10-19T15:34:29.059Z,3.15
2022-10-19T15:37:03.520Z,4.05
2022-10-19T15:39:39.756Z,4.85
2022-10-19T15:42:37.562Z,4.20
2022-10-19T15:45:25.995Z,5.05
2022-10-19T15:48:10.925Z,4.72
2022-10-19T15:50:52.350Z,5.45
2022-10-19T15:53:22.671Z,6.63
2022-10-19T15:55:49.615Z,6.60
2022-10-19T15:58:16.351Z,5.90
2022-10-19T16:00:43.614Z,5.22
2022-10-19T16:03:10.342Z,6.10
2022-10-19T16:05:37.324Z,5.45
2022-10-19T16:08:07.816Z,5.32
2022-10-19T16:10:36.816Z,5.72
2022-10-19T16:13:05.965Z,5.82
2022-10-19T16:15:35.215Z,5.57
2022-10-19T16:18:01.958Z,5.68
2022-10-19T16:20:30.042Z,6.07
2022-10-19T16:22:59.786Z,5.95
2022-10-19T16:25:26.493Z,5.47
2022-10-19T16:27:53.125Z,5.45
2022-10-19T16:30:19.941Z,5.93
2022-10-19T16:32:51.876Z,5.40
2022-10-19T16:35:18.539Z,5.95
2022-10-19T16:37:45.356Z,5.70
2022-10-19T16:40:12.236Z,5.20
2022-10-19T16:42:41.099Z,5.57
2022-10-19T16:45:08.490Z,6.07
2022-10-19T16:47:35.109Z,4.85
2022-10-19T16:50:03.159Z,5.55
2022-10-19T16:52:34.097Z,6.55
2022-10-19T16:55:03.607Z,5.57
2022-10-19T16:57:30.271Z,5.30
2022-10-19T16:59:59.135Z,4.88
2022-10-19T17:02:25.988Z,4.45
2022-10-19T17:04:53.106Z,4.35
2022-10-19T17:07:19.837Z,4.22
2022-10-19T17:09:47.911Z,4.85
2022-10-19T17:12:17.132Z,4.68
2022-10-19T17:14:43.903Z,4.70
2022-10-19T17:17:17.117Z,4.15
2022-10-19T17:19:43.766Z,4.35
2022-10-19T17:22:10.482Z,5.72
2022-10-19T17:24:39.592Z,5.10
2022-10-19T17:27:06.369Z,4.25
2022-10-19T17:29:33.157Z,4.88
2022-10-19T17:31:59.942Z,5.13
2022-10-19T17:34:27.348Z,4.57
2022-10-19T17:36:54.147Z,5.45
2022-10-19T17:39:25.739Z,4.95
2022-10-19T17:42:01.217Z,5.40
2022-10-19T17:44:30.527Z,4.97
2022-10-19T17:46:57.505Z,5.43
2022-10-19T17:49:24.330Z,5.70
2022-10-19T17:51:52.778Z,5.85
2022-10-19T17:54:28.097Z,6.65
2022-10-19T17:56:55.220Z,8.82
2022-10-19T17:59:30.259Z,5.45
2022-10-19T18:02:01.954Z,6.47
2022-10-19T18:04:28.700Z,5.50
2022-10-19T18:06:55.413Z,5.72
2022-10-19T18:09:22.097Z,5.22
2022-10-19T18:11:51.122Z,5.50
2022-10-19T18:14:17.822Z,4.70
2022-10-19T18:16:46.413Z,5.43
2022-10-19T18:19:15.144Z,5.35
2022-10-19T18:21:44.480Z,5.20
2022-10-19T18:24:15.318Z,5.03
2022-10-19T18:26:42.831Z,5.32
2022-10-19T18:29:17.847Z,5.35
2022-10-19T18:31:52.181Z,5.30
2022-10-19T18:34:24.253Z,6.25
2022-10-19T18:36:54.429Z,6.28
2022-10-19T18:39:22.397Z,5.95
2022-10-19T18:41:54.489Z,6.40
2022-10-19T18:44:26.591Z,6.03
2022-10-19T18:46:55.519Z,7.47
2022-10-19T18:49:22.315Z,6.85
2022-10-19T18:51:54.110Z,6.80
2022-10-19T18:54:22.899Z,7.60
2022-10-19T18:56:49.620Z,9.20
2022-10-19T18:59:16.748Z,7.75
2022-10-19T19:01:46.044Z,7.43
2022-10-19T19:04:15.218Z,8.55
2022-10-19T19:06:44.092Z,8.65
2022-10-19T19:09:14.466Z,8.50
2022-10-19T19:11:41.473Z,9.60
2022-10-19T19:14:21.101Z,8.98
2022-10-19T19:16:47.999Z,9.73
2022-10-19T19:19:16.626Z,9.82
2022-10-19T19:21:44.419Z,10.63
2022-10-19T19:24:17.316Z,11.23
2022-10-19T19:26:48.343Z,10.95
2022-10-19T19:29:21.415Z,11.65
2022-10-19T19:31:51.367Z,11.70
2022-10-19T19:34:18.421Z,12.05
2022-10-19T19:36:48.632Z,13.38
2022-10-19T19:39:19.281Z,13.68
2022-10-19T19:41:48.979Z,13.23
2022-10-19T19:44:16.156Z,13.65
2022-10-19T19:46:43.271Z,13.27
2022-10-19T19:49:10.095Z,14.07
2022-10-19T19:51:38.964Z,18.02
2022-10-19T19:54:05.761Z,13.68
2022-10-19T19:56:32.868Z,14.02
2022-10-19T19:59:03.508Z,14.77
2022-10-19T20:01:31.284Z,14.80
2022-10-19T20:03:59.391Z,15.30
2022-10-19T20:06:26.263Z,15.45
2022-10-19T20:08:54.425Z,16.15
2022-10-19T20:11:24.232Z,15.27
2022-10-19T20:13:51.074Z,15.95
2022-10-19T20:16:23.921Z,14.77
2022-10-19T20:19:01.273Z,14.32
2022-10-19T20:21:28.070Z,15.07
2022-10-19T20:23:59.569Z,14.27
2022-10-19T20:26:26.821Z,14.73
2022-10-19T20:28:53.686Z,17.10
2022-10-19T20:31:23.640Z,14.88
2022-10-19T20:33:50.619Z,14.80
2022-10-19T20:36:28.761Z,14.73
2022-10-19T20:38:58.012Z,13.65
2022-10-19T20:41:29.548Z,15.10
2022-10-19T20:43:56.984Z,14.23
2022-10-19T20:46:29.135Z,14.40
2022-10-19T20:48:59.500Z,14.95
2022-10-19T20:51:32.515Z,14.10
2022-10-19T20:54:01.574Z,14.60
2022-10-19T20:56:34.581Z,14.75
2022-10-19T20:59:25.153Z,15.00
2022-10-19T21:01:54.143Z,14.32
2022-10-19T21:04:20.913Z,14.20
2022-10-19T21:06:49.821Z,14.85
2022-10-19T21:09:22.129Z,14.60
2022-10-19T21:11:50.701Z,15.13
2022-10-19T21:14:28.223Z,14.93
2022-10-19T21:16:59.258Z,15.05
2022-10-19T21:19:29.739Z,14.45
2022-10-19T21:22:01.611Z,13.73
2022-10-19T21:24:32.299Z,15.05
2022-10-19T21:27:05.214Z,15.82
2022-10-19T21:29:34.072Z,14.93
2022-10-19T21:32:00.839Z,14.85
2022-10-19T21:34:30.339Z,15.05
2022-10-19T21:36:59.534Z,15.23
2022-10-19T21:39:26.211Z,15.05
2022-10-19T21:41:53.254Z,16.30
2022-10-19T21:44:22.843Z,15.32
2022-10-19T21:46:50.141Z,14.68
2022-10-19T21:49:17.473Z,15.63
2022-10-19T21:51:52.027Z,15.55
2022-10-19T21:54:21.370Z,15.43
2022-10-19T21:56:49.005Z,15.13
2022-10-19T21:59:16.464Z,14.32
2022-10-19T22:01:43.293Z,15.52
2022-10-19T22:04:16.232Z,15.05
2022-10-19T22:06:43.173Z,15.25
2022-10-19T22:09:19.528Z,15.48
2022-10-19T22:11:48.975Z,15.05
2022-10-19T22:14:16.774Z,16.40
2022-10-19T22:16:44.073Z,15.60
2022-10-19T22:19:11.386Z,15.63
2022-10-19T22:24:13.862Z,15.38
2022-10-19T22:26:44.189Z,16.05
2022-10-19T22:29:11.170Z,15.23
2022-10-19T22:31:38.703Z,15.95
2022-10-19T22:34:08.580Z,15.80
2022-10-19T22:36:35.811Z,15.63
2022-10-19T22:39:02.621Z,15.23
2022-10-19T22:41:29.255Z,16.90
2022-10-19T22:43:55.908Z,16.83
2022-10-19T22:46:22.615Z,16.17
2022-10-19T22:48:49.224Z,15.57
2022-10-19T22:51:15.906Z,16.02
2022-10-19T22:53:42.555Z,16.58
2022-10-19T22:56:11.674Z,16.15
2022-10-19T22:58:41.149Z,15.05
2022-10-19T23:01:13.002Z,15.60
2022-10-19T23:03:40.400Z,14.90
2022-10-19T23:06:12.115Z,16.17
2022-10-19T23:08:39.018Z,15.20
2022-10-19T23:11:06.147Z,16.00
2022-10-19T23:13:35.203Z,15.20
2022-10-19T23:16:02.010Z,15.15
2022-10-19T23:18:37.230Z,19.67
2022-10-19T23:21:10.250Z,15.70
2022-10-19T23:23:39.617Z,16.80
2022-10-19T23:26:10.564Z,16.02
2022-10-19T23:28:39.505Z,15.63
2022-10-19T23:31:12.493Z,15.30
2022-10-19T23:33:39.383Z,16.27
2022-10-19T23:36:14.529Z,16.25
2022-10-19T23:38:42.806Z,16.50
2022-10-19T23:41:09.714Z,15.40
2022-10-19T23:46:08.903Z,16.48
2022-10-19T23:48:35.819Z,17.10
2022-10-19T23:51:05.666Z,16.95
2022-10-19T23:53:35.749Z,17.38
2022-10-19T23:56:12.698Z,15.68
2022-10-19T23:58:39.403Z,17.52
